This is the latest recevied weather packets stored in our database for station/object KB1FCH. If no packets are shown the sender has not sent any weather packets the latest 10 day(s).
| Time | Temp. | Humidity | Pressure | Rain* | Wind** | Luminosity | Snow |
|---|---|---|---|---|---|---|---|
| 1777214439 | 2.78° C | 91% | 992 hPa | 0 mm | - | 21 W/m² | - |
| 1777213216 | 1.67° C | 94% | 991.8 hPa | 0 mm | - | 18 W/m² | - |
| 1777208475 | 1.11° C | 94% | 991.5 hPa | 0 mm | - | 1 W/m² | - |
| 1777203075 | 1.67° C | 93% | 991.5 hPa | 0 mm | - | 0 W/m² | - |
| 1777202474 | 2.22° C | 93% | 991.5 hPa | 0 mm | - | 0 W/m² | - |
| 1777198216 | 2.22° C | 91% | 991.5 hPa | 0 mm | - | 0 W/m² | - |
| 1777195276 | 3.33° C | 88% | 991.6 hPa | 0 mm | - | 0 W/m² | - |
| 1777194676 | 3.33° C | 89% | 991.5 hPa | 0 mm | - | 0 W/m² | - |
| 1777188675 | 4.44° C | 84% | 991.6 hPa | 0 mm | - | 0 W/m² | - |
| 1777186216 | 5° C | 86% | 991.5 hPa | 0 mm | - | 0 W/m² | - |
| 1777179616 | 7.22° C | 75% | 991.9 hPa | 0 mm | - | 0 W/m² | - |
| 1777178416 | 7.78° C | 70% | 991.8 hPa | 0 mm | - | 0 W/m² | - |
| 1777176075 | 9.44° C | 60% | 991.5 hPa | 0 mm | - | 0 W/m² | - |
| 1777171816 | 12.78° C | 46% | 991.4 hPa | 0 mm | - | 6 W/m² | - |
| 1777168215 | 14.44° C | 43% | 991.4 hPa | 0 mm | - | 18 W/m² | - |
| 1777165875 | 17.22° C | 35% | 991.5 hPa | 0 mm | - | 34 W/m² | - |
| 1777164636 | 17.78° C | 32% | 991.6 hPa | 0 mm | - | 204 W/m² | - |
| 1777159275 | 17.22° C | 31% | 992.1 hPa | 0 mm | - | 55 W/m² | - |
| 1777158015 | 16.67° C | 31% | 992.2 hPa | 0 mm | - | 50 W/m² | - |
| 1777155075 | 17.22° C | 29% | 992.6 hPa | 0 mm | - | 38 W/m² | - |
| 1777149015 | 16.11° C | 27% | 993.4 hPa | 0 mm | - | 38 W/m² | - |
| 1777147274 | 15.56° C | 27% | 993.5 hPa | 0 mm | - | 25 W/m² | - |
| 1777146015 | 15.56° C | 34% | 993.8 hPa | 0 mm | - | 26 W/m² | - |
| 1777141816 | 13.89° C | 47% | 994.5 hPa | 0 mm | - | 71 W/m² | - |
* Rain latest hour (hover to see other rain measurements)
** Current wind speed in m/s (hover to see current wind gust speed)